createdAt,value
2023-10-09T00:02:45.424Z,3.87
2023-10-09T00:05:48.411Z,3.77
2023-10-09T00:08:52.583Z,3.74
2023-10-09T00:11:58.490Z,3.75
2023-10-09T00:15:11.874Z,3.75
2023-10-09T00:18:15.779Z,3.76
2023-10-09T00:21:21.704Z,3.73
2023-10-09T00:24:25.361Z,3.71
2023-10-09T00:27:32.767Z,3.69
2023-10-09T00:30:36.897Z,3.62
2023-10-09T00:33:39.899Z,3.62
2023-10-09T00:36:51.794Z,3.61
2023-10-09T00:39:58.293Z,3.59
2023-10-09T00:43:07.537Z,3.61
2023-10-09T00:46:13.674Z,3.59
2023-10-09T00:49:17.212Z,3.56
2023-10-09T00:52:28.692Z,3.49
2023-10-09T00:55:44.681Z,3.49
2023-10-09T00:58:56.562Z,3.47
2023-10-09T01:02:06.406Z,3.44
2023-10-09T01:05:20.333Z,3.42
2023-10-09T01:08:31.826Z,3.45
2023-10-09T01:11:35.763Z,3.53
2023-10-09T01:14:39.063Z,3.60
2023-10-09T01:17:46.833Z,3.65
2023-10-09T01:20:50.492Z,3.72
2023-10-09T01:24:03.997Z,3.73
2023-10-09T01:27:16.976Z,3.71
2023-10-09T01:30:21.410Z,3.72
2023-10-09T01:33:28.893Z,3.74
2023-10-09T01:36:35.390Z,3.75
2023-10-09T01:39:43.564Z,3.74
2023-10-09T01:42:47.233Z,3.77
2023-10-09T01:45:53.297Z,3.80
2023-10-09T01:48:56.221Z,3.82
2023-10-09T01:52:09.173Z,3.84
2023-10-09T01:55:29.038Z,3.85
2023-10-09T01:58:33.612Z,3.87
2023-10-09T02:01:42.210Z,3.89
2023-10-09T02:04:46.303Z,3.92
2023-10-09T02:07:54.818Z,3.94
2023-10-09T02:10:57.815Z,4.00
2023-10-09T02:14:02.121Z,4.07
2023-10-09T02:17:10.910Z,4.12
2023-10-09T02:20:29.769Z,4.15
2023-10-09T02:23:40.623Z,4.18
2023-10-09T02:26:52.279Z,4.19
2023-10-09T02:29:57.722Z,4.20
2023-10-09T02:33:08.239Z,4.21
2023-10-09T02:36:14.414Z,4.21
2023-10-09T02:39:27.582Z,4.21
2023-10-09T02:42:30.759Z,4.20
2023-10-09T02:45:36.240Z,4.19
2023-10-09T02:48:43.836Z,4.18
2023-10-09T02:51:54.334Z,4.16
2023-10-09T02:55:00.911Z,4.13
2023-10-09T02:58:09.012Z,4.11
2023-10-09T03:01:15.812Z,4.11
2023-10-09T03:04:20.719Z,4.12
2023-10-09T03:07:24.747Z,4.13
2023-10-09T03:10:27.813Z,4.12
2023-10-09T03:13:34.310Z,4.11
2023-10-09T03:16:37.830Z,4.12
2023-10-09T03:19:44.972Z,4.13
2023-10-09T03:22:49.373Z,4.18
2023-10-09T03:25:52.247Z,4.20
2023-10-09T03:28:55.586Z,4.21
2023-10-09T03:31:58.667Z,4.22
2023-10-09T03:35:04.272Z,4.24
2023-10-09T03:38:18.407Z,4.27
2023-10-09T03:41:21.781Z,4.33
2023-10-09T03:44:24.736Z,4.39
2023-10-09T03:47:28.876Z,4.46
2023-10-09T03:50:37.087Z,4.52
2023-10-09T03:53:40.814Z,4.57
2023-10-09T03:56:43.863Z,4.58
2023-10-09T03:59:48.069Z,4.60
2023-10-09T04:02:51.967Z,4.62
2023-10-09T04:05:55.023Z,4.64
2023-10-09T04:09:28.933Z,4.67
2023-10-09T04:12:32.432Z,4.71
2023-10-09T04:15:36.991Z,4.73
2023-10-09T04:18:41.206Z,4.75
2023-10-09T04:21:44.300Z,4.78
2023-10-09T04:24:49.618Z,4.80
2023-10-09T04:28:18.790Z,4.78
2023-10-09T04:31:23.474Z,4.75
2023-10-09T04:34:35.862Z,4.71
2023-10-09T04:37:39.034Z,4.70
2023-10-09T04:40:41.890Z,4.69
2023-10-09T04:43:45.874Z,4.70
2023-10-09T04:47:20.055Z,4.71
2023-10-09T04:50:31.903Z,4.70
2023-10-09T04:53:45.269Z,4.69
2023-10-09T04:56:54.394Z,4.70
2023-10-09T04:59:59.760Z,4.71
2023-10-09T05:03:14.366Z,4.72
2023-10-09T05:06:36.337Z,4.74
2023-10-09T05:09:57.093Z,4.75
2023-10-09T05:13:00.127Z,4.76
2023-10-09T05:16:04.180Z,4.76
2023-10-09T05:19:08.095Z,4.76
2023-10-09T05:22:30.381Z,4.76
2023-10-09T05:25:52.040Z,4.77
2023-10-09T05:28:59.531Z,4.78
2023-10-09T05:32:16.844Z,4.78
2023-10-09T05:35:31.107Z,4.80
2023-10-09T05:38:37.209Z,4.85
2023-10-09T05:42:01.101Z,4.87
2023-10-09T05:45:18.238Z,4.88
2023-10-09T05:48:21.527Z,4.91
2023-10-09T05:51:43.189Z,4.93
2023-10-09T05:55:04.756Z,4.96
2023-10-09T05:58:10.341Z,4.99
2023-10-09T06:01:31.673Z,5.02
2023-10-09T06:04:56.016Z,5.05
2023-10-09T06:08:08.614Z,5.07
2023-10-09T06:11:48.885Z,5.09
2023-10-09T06:14:58.999Z,5.10
2023-10-09T06:18:22.200Z,5.13
2023-10-09T06:21:41.839Z,5.19
2023-10-09T06:24:53.930Z,5.25
2023-10-09T06:27:59.815Z,5.29
2023-10-09T06:31:22.933Z,5.33
2023-10-09T06:34:36.453Z,5.39
2023-10-09T06:37:59.568Z,5.44
2023-10-09T06:41:05.400Z,5.52
2023-10-09T06:44:18.951Z,5.57
2023-10-09T06:47:25.333Z,5.65
2023-10-09T06:50:48.317Z,5.70
2023-10-09T06:53:55.208Z,5.74
2023-10-09T06:57:14.329Z,5.78
2023-10-09T07:00:36.211Z,5.86
2023-10-09T07:03:53.519Z,5.95
2023-10-09T07:06:58.137Z,6.04
2023-10-09T07:10:27.246Z,6.13
2023-10-09T07:13:30.881Z,6.23
2023-10-09T07:16:40.661Z,6.32
2023-10-09T07:19:44.788Z,6.41
2023-10-09T07:23:10.884Z,6.49
2023-10-09T07:26:19.928Z,6.58
2023-10-09T07:29:23.201Z,6.65
2023-10-09T07:32:28.758Z,6.69
2023-10-09T07:35:44.448Z,6.72
2023-10-09T07:38:56.404Z,6.73
2023-10-09T07:42:16.651Z,6.79
2023-10-09T07:45:19.732Z,6.87
2023-10-09T07:48:27.051Z,6.94
2023-10-09T07:51:33.064Z,7.01
2023-10-09T07:54:51.010Z,7.05
2023-10-09T07:57:54.777Z,7.08
2023-10-09T08:01:08.138Z,7.11
2023-10-09T08:04:15.422Z,7.15
2023-10-09T08:08:05.448Z,7.19
2023-10-09T08:11:02.660Z,7.17
2023-10-09T08:14:08.820Z,7.21
2023-10-09T08:17:31.917Z,7.23
2023-10-09T08:20:57.517Z,7.22
2023-10-09T08:24:06.179Z,7.23
2023-10-09T08:27:49.376Z,7.23
2023-10-09T08:31:04.658Z,7.23
2023-10-09T08:37:16.765Z,7.29
2023-10-09T08:40:21.067Z,7.33
2023-10-09T08:43:24.093Z,7.38
2023-10-09T08:46:28.977Z,7.44
2023-10-09T08:49:36.656Z,7.50
2023-10-09T08:52:40.772Z,7.56
2023-10-09T08:55:45.109Z,7.62
2023-10-09T08:58:48.274Z,7.68
2023-10-09T09:01:53.599Z,7.71
2023-10-09T09:04:56.779Z,7.73
2023-10-09T09:08:00.927Z,7.73
2023-10-09T09:11:16.008Z,7.73
2023-10-09T09:14:23.271Z,7.74
2023-10-09T09:17:34.432Z,7.76
2023-10-09T09:20:47.175Z,7.77
2023-10-09T09:23:58.934Z,7.78
2023-10-09T09:27:32.688Z,7.83
2023-10-09T09:30:36.671Z,7.88
2023-10-09T09:33:43.996Z,7.94
2023-10-09T09:37:00.027Z,7.96
2023-10-09T09:40:16.333Z,7.98
2023-10-09T09:43:23.455Z,7.99
2023-10-09T09:46:37.121Z,8.05
2023-10-09T09:49:43.853Z,8.11
2023-10-09T09:52:48.139Z,8.18
2023-10-09T09:55:57.342Z,8.26
2023-10-09T09:59:07.783Z,8.34
2023-10-09T10:02:22.085Z,8.42
2023-10-09T10:05:30.900Z,8.51
2023-10-09T10:08:34.482Z,8.58
2023-10-09T10:11:47.292Z,8.61
2023-10-09T10:15:00.264Z,8.62
2023-10-09T10:18:06.454Z,8.68
2023-10-09T10:21:17.565Z,8.74
2023-10-09T10:24:29.949Z,8.81
2023-10-09T10:27:46.178Z,8.84
2023-10-09T10:30:52.252Z,8.88
2023-10-09T10:33:56.246Z,8.94
2023-10-09T10:36:59.614Z,8.96
2023-10-09T10:40:04.057Z,9.02
2023-10-09T10:43:33.005Z,9.08
2023-10-09T10:46:45.593Z,9.16
2023-10-09T10:49:59.822Z,9.22
2023-10-09T10:53:16.935Z,9.25
2023-10-09T10:56:20.213Z,9.30
2023-10-09T10:59:29.556Z,9.36
2023-10-09T11:02:34.775Z,9.40
2023-10-09T11:05:41.035Z,9.47
2023-10-09T11:08:56.084Z,9.54
2023-10-09T11:12:23.629Z,9.56
2023-10-09T11:15:47.805Z,9.56
2023-10-09T11:18:51.011Z,9.57
2023-10-09T11:22:20.361Z,9.59
2023-10-09T11:25:26.693Z,9.65
2023-10-09T11:28:49.833Z,9.70
2023-10-09T11:32:04.914Z,9.83
2023-10-09T11:35:15.895Z,9.93
2023-10-09T11:38:25.504Z,10.04
2023-10-09T11:41:35.308Z,10.16
2023-10-09T11:44:46.821Z,10.34
2023-10-09T11:48:01.116Z,10.46
2023-10-09T11:51:04.332Z,10.47
2023-10-09T11:54:09.901Z,10.50
2023-10-09T11:57:12.823Z,10.55
2023-10-09T12:00:30.081Z,10.60
2023-10-09T12:03:34.525Z,10.63
2023-10-09T12:06:38.060Z,10.66
2023-10-09T12:09:41.382Z,10.67
2023-10-09T12:12:47.773Z,10.70
2023-10-09T12:15:53.306Z,10.73
2023-10-09T12:18:56.350Z,10.80
2023-10-09T12:22:01.483Z,10.82
2023-10-09T12:25:10.457Z,10.79
2023-10-09T12:28:13.812Z,10.81
2023-10-09T12:31:20.995Z,10.86
2023-10-09T12:34:27.762Z,10.91
2023-10-09T12:37:32.640Z,10.98
2023-10-09T12:40:37.200Z,11.04
2023-10-09T12:43:40.247Z,11.03
2023-10-09T12:46:48.831Z,11.06
2023-10-09T12:49:55.305Z,11.09
2023-10-09T12:53:08.589Z,11.11
2023-10-09T12:56:13.363Z,11.14
2023-10-09T12:59:16.739Z,11.09
2023-10-09T13:02:30.145Z,11.17
2023-10-09T13:05:33.673Z,11.19
2023-10-09T13:08:36.579Z,11.25
2023-10-09T13:11:41.708Z,11.27
2023-10-09T13:14:44.877Z,11.30
2023-10-09T13:17:48.695Z,11.34
2023-10-09T13:20:51.680Z,11.36
2023-10-09T13:23:58.822Z,11.35
2023-10-09T13:27:05.585Z,11.34
2023-10-09T13:30:10.954Z,11.37
2023-10-09T13:33:18.395Z,11.35
2023-10-09T13:36:37.491Z,11.32
2023-10-09T13:39:53.182Z,11.40
2023-10-09T13:43:02.906Z,11.43
2023-10-09T13:46:05.859Z,11.38
2023-10-09T13:49:13.338Z,11.37
2023-10-09T13:52:19.511Z,11.49
2023-10-09T13:55:22.422Z,11.51
2023-10-09T13:58:25.461Z,11.51
2023-10-09T14:01:28.606Z,11.48
2023-10-09T14:04:31.637Z,11.45
2023-10-09T14:07:36.117Z,11.43
2023-10-09T14:10:40.220Z,11.30
2023-10-09T14:13:43.824Z,11.17
2023-10-09T14:16:47.768Z,11.12
2023-10-09T14:19:52.601Z,11.05
2023-10-09T14:22:55.678Z,11.02
2023-10-09T14:26:03.174Z,10.99
2023-10-09T14:29:07.992Z,10.96
2023-10-09T14:32:14.372Z,10.93
2023-10-09T14:35:17.413Z,10.89
2023-10-09T14:38:27.972Z,10.84
2023-10-09T14:41:34.460Z,10.79
2023-10-09T14:44:39.446Z,10.74
2023-10-09T14:47:43.416Z,10.71
2023-10-09T14:50:50.593Z,10.67
2023-10-09T14:53:58.605Z,10.64
2023-10-09T14:57:01.822Z,10.58
2023-10-09T15:00:14.921Z,10.54
2023-10-09T15:03:21.173Z,10.49
2023-10-09T15:06:31.550Z,10.44
2023-10-09T15:09:37.703Z,10.38
2023-10-09T15:12:43.955Z,10.34
2023-10-09T15:15:52.663Z,10.30
2023-10-09T15:18:58.485Z,10.25
2023-10-09T15:22:11.118Z,10.21
2023-10-09T15:25:16.162Z,10.16
2023-10-09T15:28:23.960Z,10.14
2023-10-09T15:31:28.584Z,10.09
2023-10-09T15:34:32.723Z,10.06
2023-10-09T15:37:35.573Z,10.02
2023-10-09T15:40:40.315Z,9.96
2023-10-09T15:43:45.417Z,9.88
2023-10-09T15:46:48.458Z,9.84
2023-10-09T15:49:53.947Z,9.79
2023-10-09T15:52:56.974Z,9.71
2023-10-09T15:56:02.376Z,9.62
2023-10-09T15:59:06.749Z,9.56
2023-10-09T16:02:09.742Z,9.47
2023-10-09T16:05:13.231Z,9.40
2023-10-09T16:08:16.452Z,9.35
2023-10-09T16:11:26.478Z,9.30
2023-10-09T16:14:29.440Z,9.22
2023-10-09T16:17:33.634Z,9.13
2023-10-09T16:20:38.547Z,9.02
2023-10-09T16:23:43.335Z,8.93
2023-10-09T16:26:52.254Z,8.85
2023-10-09T16:29:55.807Z,8.75
2023-10-09T16:32:58.988Z,8.65
2023-10-09T16:36:02.026Z,8.56
2023-10-09T16:39:05.379Z,8.47
2023-10-09T16:42:10.890Z,8.42
2023-10-09T16:45:17.182Z,8.34
2023-10-09T16:48:20.247Z,8.26
2023-10-09T16:51:23.270Z,8.18
2023-10-09T16:54:27.770Z,8.06
2023-10-09T16:57:30.839Z,7.95
2023-10-09T17:00:36.652Z,7.84
2023-10-09T17:03:43.762Z,7.71
2023-10-09T17:06:52.489Z,7.59
2023-10-09T17:09:57.393Z,7.49
2023-10-09T17:13:01.859Z,7.41
2023-10-09T17:16:04.806Z,7.30
2023-10-09T17:19:08.019Z,7.19
2023-10-09T17:22:13.598Z,7.11
2023-10-09T17:25:18.002Z,7.05
2023-10-09T17:28:20.890Z,6.98
2023-10-09T17:31:28.345Z,6.93
2023-10-09T17:34:34.994Z,6.92
2023-10-09T17:37:40.063Z,6.89
2023-10-09T17:40:52.967Z,6.84
2023-10-09T17:43:59.141Z,6.85
2023-10-09T17:47:02.230Z,6.87
2023-10-09T17:50:07.319Z,6.87
2023-10-09T17:53:11.383Z,6.87
2023-10-09T17:56:19.630Z,6.86
2023-10-09T17:59:23.100Z,6.83
2023-10-09T18:02:29.208Z,6.76
2023-10-09T18:05:34.473Z,6.68
2023-10-09T18:08:37.609Z,6.64
2023-10-09T18:11:40.913Z,6.58
2023-10-09T18:14:44.585Z,6.57
2023-10-09T18:17:47.802Z,6.55
2023-10-09T18:20:50.717Z,6.51
2023-10-09T18:23:57.062Z,6.50
2023-10-09T18:26:59.905Z,6.49
2023-10-09T18:30:02.871Z,6.49
2023-10-09T18:33:06.261Z,6.50
2023-10-09T18:36:10.187Z,6.47
2023-10-09T18:39:13.945Z,6.45
2023-10-09T18:42:17.155Z,6.43
2023-10-09T18:45:19.958Z,6.40
2023-10-09T18:48:29.030Z,6.38
2023-10-09T18:51:33.653Z,6.34
2023-10-09T18:54:37.237Z,6.31
2023-10-09T18:57:41.322Z,6.30
2023-10-09T19:00:50.143Z,6.26
2023-10-09T19:03:54.576Z,6.20
2023-10-09T19:06:59.198Z,6.14
2023-10-09T19:10:02.795Z,6.09
2023-10-09T19:13:11.156Z,6.01
2023-10-09T19:16:14.150Z,5.89
2023-10-09T19:19:17.174Z,5.76
2023-10-09T19:22:21.171Z,5.64
2023-10-09T19:25:28.589Z,5.54
2023-10-09T19:28:31.624Z,5.48
2023-10-09T19:31:34.467Z,5.46
2023-10-09T19:34:38.129Z,5.40
2023-10-09T19:37:43.381Z,5.34
2023-10-09T19:40:53.379Z,5.29
2023-10-09T19:43:56.398Z,5.22
2023-10-09T19:46:59.392Z,5.15
2023-10-09T19:50:04.027Z,5.11
2023-10-09T19:53:06.873Z,5.11
2023-10-09T19:56:11.743Z,5.11
2023-10-09T19:59:15.984Z,5.09
2023-10-09T20:02:19.175Z,5.09
2023-10-09T20:05:23.969Z,5.08
2023-10-09T20:08:28.878Z,5.03
2023-10-09T20:11:32.485Z,5.01
2023-10-09T20:14:35.390Z,4.95
2023-10-09T20:17:38.342Z,4.95
2023-10-09T20:20:47.587Z,4.94
2023-10-09T20:23:50.457Z,4.88
2023-10-09T20:26:53.294Z,4.84
2023-10-09T20:29:57.451Z,4.81
2023-10-09T20:33:00.754Z,4.83
2023-10-09T20:36:13.802Z,4.79
2023-10-09T20:39:17.702Z,4.77
2023-10-09T20:42:22.936Z,4.73
2023-10-09T20:45:26.017Z,4.71
2023-10-09T20:48:28.824Z,4.75
2023-10-09T20:51:42.552Z,4.79
2023-10-09T20:54:53.733Z,4.84
2023-10-09T20:57:58.439Z,4.79
2023-10-09T21:01:12.906Z,4.71
2023-10-09T21:04:15.896Z,4.59
2023-10-09T21:07:19.175Z,4.54
2023-10-09T21:10:23.079Z,4.47
2023-10-09T21:13:27.819Z,4.41
2023-10-09T21:16:30.679Z,4.38
2023-10-09T21:19:33.690Z,4.37
2023-10-09T21:22:38.910Z,4.38
2023-10-09T21:25:41.814Z,4.37
2023-10-09T21:28:45.423Z,4.34
2023-10-09T21:31:48.351Z,4.36
2023-10-09T21:34:51.340Z,4.36
2023-10-09T21:38:01.254Z,4.29
2023-10-09T21:41:18.211Z,4.22
2023-10-09T21:44:21.729Z,4.20
2023-10-09T21:47:24.824Z,4.13
2023-10-09T21:50:29.619Z,4.05
2023-10-09T21:53:32.483Z,4.00
2023-10-09T21:56:35.794Z,3.96
2023-10-09T21:59:38.659Z,3.91
2023-10-09T22:02:51.048Z,3.86
2023-10-09T22:05:57.162Z,3.82
2023-10-09T22:09:00.210Z,3.78
2023-10-09T22:12:03.152Z,3.74
2023-10-09T22:15:06.817Z,3.71
2023-10-09T22:18:12.569Z,3.70
2023-10-09T22:21:17.314Z,3.68
2023-10-09T22:24:22.081Z,3.66
2023-10-09T22:27:25.166Z,3.64
2023-10-09T22:30:35.028Z,3.63
2023-10-09T22:33:47.030Z,3.62
2023-10-09T22:36:55.009Z,3.61
2023-10-09T22:40:02.230Z,3.61
2023-10-09T22:43:15.775Z,3.61
2023-10-09T22:46:20.750Z,3.62
2023-10-09T22:49:26.264Z,3.59
2023-10-09T22:52:35.844Z,3.57
2023-10-09T22:55:45.384Z,3.54
2023-10-09T22:58:52.507Z,3.52
2023-10-09T23:02:01.796Z,3.50
2023-10-09T23:05:05.825Z,3.47
2023-10-09T23:08:17.787Z,3.47
2023-10-09T23:11:26.764Z,3.44
2023-10-09T23:14:29.840Z,3.41
2023-10-09T23:17:49.415Z,3.38
2023-10-09T23:21:12.458Z,3.34
2023-10-09T23:24:27.087Z,3.31
2023-10-09T23:27:39.462Z,3.30
2023-10-09T23:30:45.733Z,3.29
2023-10-09T23:33:58.372Z,3.27
2023-10-09T23:37:05.172Z,3.24
2023-10-09T23:40:17.735Z,3.21
2023-10-09T23:43:29.398Z,3.20
2023-10-09T23:46:37.331Z,3.23
2023-10-09T23:49:40.291Z,3.23
2023-10-09T23:52:45.727Z,3.19
2023-10-09T23:55:53.006Z,3.14
2023-10-09T23:58:56.585Z,3.11
